Kakisa, Canada
Current Conditions -  °F | °C
As of 10:00 PM on Tuesday 21 Oct 2014 (Local Time) from CYHY Reporting Station
Drizzle Drizzle  
Wind Chill: 29°   Ceiling: 200
Heat Index: 34°   Visibility: 0.62mi
Dew Point: 32°   Wind: 6mph
Humidity: 93%   Direction: 260°W
Pressure: 29.61"   Gusts: NA
Location:  60.93°N, 117.42°W
Report Text: CYHY 220400Z 26005KT 5/8SM -DZ BR VV002 01/00 A2961 RMK FG8 SLP038
Loading
Personal Weather Stations






























Interactive Weather Map
Tropical Storm Tracking
New forecast layout! Learn more

10-Day Weather Forecast

Advertisements
Track Severe Weather on mobile